Time;durP1;ratioP1;P1;durP2;ratioP2;P2;SDS_P1;SDS_P2;PMS_P1;PMS_P2;Temp;Humidity;BMP_temperature;BMP_pressure;BME280_temperature;BME280_humidity;BME280_pressure;Samples;Min_cycle;Max_cycle;Signal;HPM_P1;HPM_P2
2020/12/03 00:01:19;;;;;;;;;14.00;9.00;;;;;21.75;58.15;99427.09;5070519;28;9684;-69
2020/12/03 00:03:57;;;;;;;;;8.00;8.00;;;;;21.73;57.88;99425.84;5071760;28;10602;-69
2020/12/03 00:06:38;;;;;;;;;9.25;8.00;;;;;21.80;58.00;99428.81;5071652;28;9772;-69
2020/12/03 00:09:16;;;;;;;;;0.25;0.25;;;;;21.74;59.53;99424.75;5072177;28;9776;-69
2020/12/03 00:11:48;;;;;;;;;13.50;11.25;;;;;21.83;58.06;99443.50;5071483;28;9742;-68
2020/12/03 00:14:17;;;;;;;;;13.25;10.75;;;;;21.81;57.67;99441.13;5070513;28;10881;-69
2020/12/03 00:16:48;;;;;;;;;12.75;10.50;;;;;21.79;57.85;99443.34;5070441;28;9782;-70
2020/12/03 00:19:20;;;;;;;;;12.50;12.50;;;;;21.71;57.85;99436.91;5069671;28;9961;-69
2020/12/03 00:21:53;;;;;;;;;9.75;9.75;;;;;21.74;57.88;99443.53;5068498;28;9857;-69
2020/12/03 00:24:26;;;;;;;;;11.75;9.75;;;;;21.78;57.79;99456.00;5066352;28;9947;-69
2020/12/03 00:26:55;;;;;;;;;11.50;10.00;;;;;21.80;57.90;99458.34;5066620;28;9943;-69
2020/12/03 00:29:24;;;;;;;;;10.00;8.50;;;;;21.83;58.24;99468.44;5070762;28;9921;-69
2020/12/03 00:31:53;;;;;;;;;10.25;9.00;;;;;21.87;57.99;99469.38;5071134;28;9879;-71
2020/12/03 00:34:22;;;;;;;;;8.25;8.00;;;;;21.88;57.99;99468.28;5070313;28;10066;-69
2020/12/03 00:36:50;;;;;;;;;8.00;8.00;;;;;21.94;58.06;99483.09;5068849;28;9766;-68
2020/12/03 00:39:19;;;;;;;;;12.50;9.50;;;;;21.94;58.00;99483.09;5082830;28;10047;-69
2020/12/03 00:41:52;;;;;;;;;9.75;8.00;;;;;21.96;58.00;99488.94;5068554;28;9874;-69
2020/12/03 00:44:21;;;;;;;;;9.75;8.50;;;;;21.96;58.13;99485.47;5067889;28;9853;-69
2020/12/03 00:46:51;;;;;;;;;7.25;7.25;;;;;22.01;57.97;99491.44;5069708;28;9940;-69
2020/12/03 00:49:19;;;;;;;;;11.50;10.25;;;;;21.98;58.07;99486.72;5069524;28;9883;-72
2020/12/03 00:51:50;;;;;;;;;10.75;7.75;;;;;22.05;58.08;99496.97;5070880;28;9851;-69
2020/12/03 00:54:18;;;;;;;;;9.25;7.25;;;;;22.03;58.23;99497.31;5068546;28;10623;-70
2020/12/03 00:56:47;;;;;;;;;9.75;9.00;;;;;22.09;58.19;99511.34;5068807;28;9796;-70
2020/12/03 00:59:16;;;;;;;;;7.50;7.00;;;;;22.12;58.46;99511.44;5082869;28;9742;-70
2020/12/03 01:01:44;;;;;;;;;10.00;6.50;;;;;22.20;58.09;99507.13;5066553;28;9764;-70
2020/12/03 01:04:13;;;;;;;;;7.00;6.00;;;;;22.24;58.16;99512.66;5067324;28;10084;-70
2020/12/03 01:06:44;;;;;;;;;10.25;9.00;;;;;22.28;58.20;99511.69;5065692;28;9584;-70
2020/12/03 01:09:14;;;;;;;;;11.00;11.00;;;;;22.37;57.88;99523.16;5068008;28;10115;-70
2020/12/03 01:11:43;;;;;;;;;8.75;8.00;;;;;22.39;57.70;99517.47;5068648;28;10548;-71
2020/12/03 01:14:11;;;;;;;;;7.00;7.00;;;;;22.46;57.88;99534.66;5084085;28;9661;-70
2020/12/03 01:16:40;;;;;;;;;9.00;9.00;;;;;22.54;57.84;99529.56;5066155;28;9888;-69
2020/12/03 01:19:08;;;;;;;;;9.00;7.25;;;;;22.58;57.76;99528.56;5068883;28;9743;-70
2020/12/03 01:21:37;;;;;;;;;7.50;7.50;;;;;22.64;57.56;99531.84;5067435;28;9714;-71
2020/12/03 01:24:06;;;;;;;;;2.00;2.00;;;;;22.63;57.44;99531.06;5063855;28;9726;-72
2020/12/03 01:26:34;;;;;;;;;10.25;9.00;;;;;22.66;57.40;99538.47;5066487;28;9664;-71
2020/12/03 01:29:02;;;;;;;;;11.50;10.00;;;;;22.64;57.57;99537.22;5068330;28;10358;-70
2020/12/03 01:31:31;;;;;;;;;9.00;9.00;;;;;22.64;57.44;99534.53;5066653;28;9816;-71
2020/12/03 01:34:00;;;;;;;;;10.50;9.25;;;;;22.70;57.49;99547.47;5068547;28;9631;-69
2020/12/03 01:36:28;;;;;;;;;8.00;6.50;;;;;22.74;57.33;99540.31;5070225;28;9570;-69
2020/12/03 01:38:57;;;;;;;;;7.75;7.75;;;;;22.75;57.33;99536.53;5085459;28;9620;-70
2020/12/03 01:41:25;;;;;;;;;4.00;2.75;;;;;22.71;57.30;99529.44;5070970;28;9634;-69
2020/12/03 01:43:54;;;;;;;;;7.25;7.25;;;;;22.87;57.09;99548.50;5069493;28;9478;-69
2020/12/03 01:46:24;;;;;;;;;7.50;6.75;;;;;22.91;56.90;99552.09;5070189;28;9526;-69
2020/12/03 01:49:11;;;;;;;;;9.75;6.75;;;;;22.95;56.95;99556.50;5070319;28;9712;-69
2020/12/03 01:51:44;;;;;;;;;9.75;8.25;;;;;22.98;56.91;99555.03;5070762;28;10252;-69
2020/12/03 01:54:16;;;;;;;;;6.25;6.25;;;;;23.00;56.76;99556.28;5074448;28;9460;-68
2020/12/03 01:57:24;;;;;;;;;7.75;7.75;;;;;23.02;56.72;99561.34;5074745;28;9541;-69
2020/12/03 02:00:08;;;;;;;;;7.00;7.00;;;;;23.02;56.78;99570.22;5073840;28;9385;-70
2020/12/03 02:02:37;;;;;;;;;8.75;8.75;;;;;23.03;56.79;99574.47;5074400;28;10337;-69
2020/12/03 02:05:18;;;;;;;;;10.75;8.75;;;;;23.04;56.82;99559.13;5074225;28;9568;-69
2020/12/03 02:07:47;;;;;;;;;10.33;8.00;;;;;23.08;56.71;99568.91;5073731;28;9493;-70
2020/12/03 02:10:22;;;;;;;;;6.33;6.33;;;;;23.06;56.69;99567.66;5072645;28;10126;-69
2020/12/03 02:12:51;;;;;;;;;7.25;6.25;;;;;23.12;56.44;99570.94;5074565;28;9521;-69
2020/12/03 02:15:21;;;;;;;;;10.00;8.33;;;;;23.15;56.61;99564.88;5074185;28;10261;-69
2020/12/03 02:17:49;;;;;;;;;7.67;7.67;;;;;23.22;56.43;99568.63;5073962;28;9403;-69
2020/12/03 02:20:20;;;;;;;;;8.75;7.50;;;;;23.27;56.55;99567.63;5074276;28;9309;-69
2020/12/03 02:22:49;;;;;;;;;8.50;7.25;;;;;23.26;56.36;99561.47;5074242;28;9390;-70
2020/12/03 02:25:18;;;;;;;;;7.25;7.00;;;;;23.37;56.39;99569.91;5089707;28;9391;-70
2020/12/03 02:27:46;;;;;;;;;8.33;6.67;;;;;23.41;56.25;99560.81;5074380;28;9491;-70
2020/12/03 02:30:15;;;;;;;;;7.33;7.00;;;;;23.41;56.27;99547.34;5073415;28;9404;-68
2020/12/03 02:32:43;;;;;;;;;7.67;6.33;;;;;23.47;56.47;99557.91;5072463;28;10099;-69
2020/12/03 02:35:14;;;;;;;;;11.33;8.33;;;;;23.57;56.20;99560.22;5073171;28;9225;-68
2020/12/03 02:37:42;;;;;;;;;10.67;8.33;;;;;23.62;55.97;99560.78;5072717;28;9382;-68
2020/12/03 02:40:11;;;;;;;;;10.00;8.67;;;;;23.68;56.01;99566.75;5073239;28;9439;-69
2020/12/03 02:42:39;;;;;;;;;10.00;8.33;;;;;23.71;55.94;99566.09;5071769;28;9309;-68
2020/12/03 02:45:08;;;;;;;;;8.67;7.00;;;;;23.70;55.74;99557.22;5073023;28;9311;-69
2020/12/03 02:47:36;;;;;;;;;10.00;8.67;;;;;23.76;55.78;99563.19;5072537;28;9305;-69
2020/12/03 02:50:06;;;;;;;;;11.33;8.33;;;;;23.80;55.72;99566.78;5070408;28;9190;-68
2020/12/03 02:52:35;;;;;;;;;9.33;8.00;;;;;23.85;55.67;99563.88;5073332;28;9226;-68
2020/12/03 02:55:03;;;;;;;;;6.67;6.67;;;;;23.84;55.18;99562.28;5073176;28;9367;-68
2020/12/03 02:57:32;;;;;;;;;8.67;8.67;;;;;23.91;55.41;99559.84;5073322;28;9297;-69
2020/12/03 03:00:00;;;;;;;;;7.67;5.67;;;;;24.00;55.59;99565.91;5073228;28;9166;-68
2020/12/03 03:02:28;;;;;;;;;5.67;5.67;;;;;23.97;55.24;99552.31;5073145;28;9107;-68
2020/12/03 03:04:57;;;;;;;;;7.33;6.33;;;;;24.09;55.16;99565.81;5072187;28;9047;-68
2020/12/03 03:07:25;;;;;;;;;7.33;7.33;;;;;24.15;54.93;99567.16;5070166;28;9054;-69
2020/12/03 03:09:53;;;;;;;;;6.67;6.67;;;;;24.21;54.79;99573.91;5072133;28;9081;-68
2020/12/03 03:12:21;;;;;;;;;9.00;9.00;;;;;24.22;54.67;99562.00;5072097;28;8999;-69
2020/12/03 03:14:53;;;;;;;;;5.67;5.67;;;;;24.28;54.47;99559.88;5072109;28;8998;-69
2020/12/03 03:17:21;;;;;;;;;5.00;5.00;;;;;24.32;53.31;99558.09;5072149;28;9026;-70
2020/12/03 03:19:50;;;;;;;;;7.00;7.00;;;;;24.34;53.86;99550.44;5072651;28;8935;-69
2020/12/03 03:22:18;;;;;;;;;7.00;7.00;;;;;24.45;54.15;99548.06;5072085;28;10040;-73
2020/12/03 03:24:46;;;;;;;;;10.33;6.00;;;;;24.51;54.02;99550.19;5072339;28;9235;-70
2020/12/03 03:27:15;;;;;;;;;5.00;5.00;;;;;24.57;53.93;99553.44;5071358;28;9539;-69
2020/12/03 03:29:43;;;;;;;;;6.00;4.50;;;;;24.60;54.01;99542.78;5069440;28;9115;-70
2020/12/03 03:32:11;;;;;;;;;5.00;5.00;;;;;24.65;53.91;99550.63;5071851;28;8946;-70
2020/12/03 03:34:39;;;;;;;;;6.33;5.00;;;;;24.69;53.38;99546.13;5072515;28;9132;-71
2020/12/03 03:37:08;;;;;;;;;7.33;7.00;;;;;24.68;53.23;99533.75;5072176;28;8920;-69
2020/12/03 03:39:36;;;;;;;;;3.00;3.00;;;;;24.75;52.86;99543.94;5072029;28;9716;-69
2020/12/03 03:42:05;;;;;;;;;5.67;5.67;;;;;24.73;52.98;99538.09;5071848;28;9008;-68
2020/12/03 03:44:33;;;;;;;;;5.33;5.33;;;;;24.77;52.78;99533.59;5072302;28;8907;-69
2020/12/03 03:47:01;;;;;;;;;5.00;5.00;;;;;24.76;52.74;99523.16;5070051;28;8955;-70
2020/12/03 03:49:30;;;;;;;;;8.33;6.00;;;;;24.87;52.38;99535.03;5071444;28;8840;-70
2020/12/03 03:51:58;;;;;;;;;6.67;6.67;;;;;24.87;52.53;99521.53;5072132;28;8922;-69
2020/12/03 03:54:26;;;;;;;;;5.75;5.00;;;;;24.91;52.52;99520.50;5072129;28;8947;-70
2020/12/03 03:56:55;;;;;;;;;5.33;5.33;;;;;24.96;51.89;99514.09;5071984;28;8836;-69
2020/12/03 03:59:23;;;;;;;;;8.25;4.50;;;;;24.97;50.95;99504.88;5072166;28;9007;-71
2020/12/03 04:01:52;;;;;;;;;4.00;4.00;;;;;25.07;52.09;99514.41;5068826;28;8949;-69
2020/12/03 04:04:20;;;;;;;;;8.50;5.50;;;;;25.15;52.27;99510.78;5068848;28;8909;-70
2020/12/03 04:06:48;;;;;;;;;5.00;5.00;;;;;25.20;51.82;99495.09;5071966;28;8844;-69
2020/12/03 04:09:16;;;;;;;;;5.00;5.00;;;;;25.17;51.21;99474.19;5068111;28;8840;-68
2020/12/03 04:11:46;;;;;;;;;5.50;5.50;;;;;25.30;51.26;99488.41;5071815;28;8840;-68
2020/12/03 04:14:15;;;;;;;;;6.25;5.50;;;;;25.34;51.48;99486.59;5068498;28;8836;-69
2020/12/03 04:16:43;;;;;;;;;3.50;3.50;;;;;25.34;51.49;99473.88;5071355;28;8897;-69
2020/12/03 04:19:12;;;;;;;;;5.50;3.75;;;;;25.33;51.43;99466.91;5071223;28;8840;-70
2020/12/03 04:21:40;;;;;;;;;5.75;4.00;;;;;25.42;51.11;99474.06;5071147;28;8939;-67
2020/12/03 04:24:08;;;;;;;;;5.50;5.50;;;;;25.43;51.21;99462.13;5071503;28;9573;-67
2020/12/03 04:26:37;;;;;;;;;4.00;4.00;;;;;25.47;51.31;99452.97;5071252;28;8820;-67
2020/12/03 04:29:05;;;;;;;;;4.00;4.00;;;;;25.52;51.01;99444.63;5070926;28;8868;-68
2020/12/03 04:31:33;;;;;;;;;3.50;3.50;;;;;25.50;51.17;99436.06;5071122;28;8823;-67
2020/12/03 04:34:02;;;;;;;;;5.25;5.00;;;;;25.51;51.52;99434.94;5071812;28;8840;-67
2020/12/03 04:36:31;;;;;;;;;7.50;4.50;;;;;25.60;51.22;99437.47;5071342;28;8840;-68
2020/12/03 04:39:00;;;;;;;;;7.25;6.00;;;;;25.65;50.93;99429.91;5071402;28;9573;-66
2020/12/03 04:41:28;;;;;;;;;5.50;5.50;;;;;25.71;51.21;99429.66;5071618;28;8848;-67
2020/12/03 04:44:25;;;;;;;;;7.00;6.75;;;;;25.73;50.67;99425.47;5070309;28;8959;-68
2020/12/03 04:47:28;;;;;;;;;7.50;7.50;;;;;25.76;50.40;99419.34;5068797;28;8865;-66
2020/12/03 04:50:28;;;;;;;;;8.25;7.00;;;;;25.68;50.66;99396.00;5070757;28;8860;-67
2020/12/03 04:53:26;;;;;;;;;6.25;6.00;;;;;25.83;50.28;99400.59;5085359;28;8848;-68
2020/12/03 04:56:13;;;;;;;;;10.00;7.00;;;;;25.85;50.21;99401.03;5070085;28;8974;-67
2020/12/03 04:59:12;;;;;;;;;7.00;5.25;;;;;25.89;49.92;99384.88;5069288;28;8844;-67
2020/12/03 05:02:07;;;;;;;;;6.75;5.75;;;;;25.97;50.29;99376.59;5067950;28;8844;-67
2020/12/03 05:05:04;;;;;;;;;6.25;4.50;;;;;26.01;49.85;99361.19;5067994;28;8849;-68
2020/12/03 05:07:33;;;;;;;;;7.00;5.75;;;;;26.01;49.95;99366.59;5068710;28;8848;-68
2020/12/03 05:10:26;;;;;;;;;7.25;6.25;;;;;26.07;49.45;99356.28;5069967;28;8856;-68
2020/12/03 05:12:55;;;;;;;;;7.25;7.00;;;;;26.14;49.89;99348.31;5070348;28;8835;-68
2020/12/03 05:15:31;;;;;;;;;9.50;8.25;;;;;26.18;49.84;99348.41;5070037;28;8836;-68
2020/12/03 05:18:23;;;;;;;;;6.75;6.75;;;;;26.20;49.85;99348.81;5069435;28;8855;-69
2020/12/03 05:20:57;;;;;;;;;5.00;5.00;;;;;26.22;49.57;99338.44;5068308;28;8844;-68
2020/12/03 05:23:31;;;;;;;;;6.75;6.25;;;;;26.23;49.21;99332.69;5083355;28;8987;-68
2020/12/03 05:26:01;;;;;;;;;5.00;5.00;;;;;26.23;49.12;99329.97;5065768;28;8848;-69
2020/12/03 05:28:53;;;;;;;;;7.50;6.00;;;;;26.27;48.66;99324.63;5070222;28;8879;-68
2020/12/03 05:31:40;;;;;;;;;6.50;5.00;;;;;26.33;49.75;99317.81;5069692;28;8921;-69
2020/12/03 05:34:21;;;;;;;;;6.25;5.75;;;;;26.36;49.68;99308.22;5067926;28;9655;-69
2020/12/03 05:37:11;;;;;;;;;8.50;7.00;;;;;26.41;48.54;99303.28;5070568;28;8876;-70
2020/12/03 05:39:52;;;;;;;;;9.50;6.75;;;;;26.45;49.12;99309.56;5071391;28;9675;-69
2020/12/03 05:42:27;;;;;;;;;7.75;7.75;;;;;26.44;47.74;99299.88;5071104;28;8929;-69
2020/12/03 05:45:16;;;;;;;;;7.00;7.00;;;;;26.51;47.91;99297.28;5070651;28;8952;-70
2020/12/03 05:47:49;;;;;;;;;6.50;6.50;;;;;26.55;49.25;99283.84;5068692;28;8876;-68
2020/12/03 05:50:39;;;;;;;;;7.00;5.50;;;;;26.68;48.75;99274.41;5071769;28;8855;-70
2020/12/03 05:53:22;;;;;;;;;6.75;6.75;;;;;26.72;48.59;99269.84;5071399;28;8852;-69
2020/12/03 05:55:50;;;;;;;;;15.25;14.75;;;;;26.75;48.04;99266.41;5070972;28;8836;-68
2020/12/03 05:58:33;;;;;;;;;9.00;8.50;;;;;26.79;48.14;99261.03;5087052;28;8855;-69
2020/12/03 06:01:22;;;;;;;;;7.75;7.75;;;;;26.78;46.13;99252.16;5071837;28;8816;-69
2020/12/03 06:04:14;;;;;;;;;6.50;6.50;;;;;26.78;48.32;99244.03;5070244;28;8844;-69
2020/12/03 06:07:14;;;;;;;;;7.00;4.75;;;;;26.79;47.54;99248.28;5066657;28;8944;-70
2020/12/03 06:10:12;;;;;;;;;5.75;5.75;;;;;26.79;47.37;99228.56;5065599;28;8957;-69
2020/12/03 06:13:07;;;;;;;;;4.50;4.50;;;;;26.90;47.87;99232.22;5070697;28;8840;-70
2020/12/03 06:15:45;;;;;;;;;6.75;6.75;;;;;26.93;48.47;99220.66;5070847;28;8901;-69
2020/12/03 06:18:49;;;;;;;;;5.00;5.00;;;;;27.06;48.13;99215.84;5069375;28;8855;-69
2020/12/03 06:21:36;;;;;;;;;6.50;6.50;;;;;27.12;47.84;99214.41;5071363;28;8851;-70
2020/12/03 06:24:34;;;;;;;;;5.00;5.00;;;;;27.11;47.56;99202.00;5079198;28;8872;-68
2020/12/03 06:27:41;;;;;;;;;6.25;6.25;;;;;27.16;46.36;99207.09;5074495;28;8878;-69
2020/12/03 06:30:21;;;;;;;;;5.25;5.25;;;;;27.17;47.76;99189.72;5071997;28;8860;-70
2020/12/03 06:33:17;;;;;;;;;6.50;6.50;;;;;27.25;47.30;99185.94;5078124;28;9557;-70
2020/12/03 06:36:01;;;;;;;;;5.00;5.00;;;;;27.23;47.21;99178.19;5080873;28;8844;-70
2020/12/03 06:38:47;;;;;;;;;8.00;6.00;;;;;27.27;47.20;99186.38;5071941;28;8844;-70
2020/12/03 06:41:55;;;;;;;;;5.50;4.75;;;;;27.26;46.61;99173.97;5071178;28;8851;-70
2020/12/03 06:44:47;;;;;;;;;5.00;5.00;;;;;27.36;47.16;99175.22;5068668;28;8932;-70
2020/12/03 06:47:46;;;;;;;;;4.50;4.50;;;;;27.42;46.99;99160.22;5072202;28;8925;-72
2020/12/03 06:50:36;;;;;;;;;6.75;5.50;;;;;27.50;47.28;99159.16;5071494;28;8860;-71
2020/12/03 06:53:43;;;;;;;;;5.00;5.00;;;;;27.61;47.20;99158.16;5088817;28;8852;-72
2020/12/03 06:56:43;;;;;;;;;4.00;4.00;;;;;27.64;46.78;99153.13;5069754;28;8856;-74
2020/12/03 06:59:41;;;;;;;;;4.00;4.00;;;;;27.61;44.08;99143.81;5070723;28;8933;-75
2020/12/03 07:02:41;;;;;;;;;4.75;4.75;;;;;27.62;46.19;99142.66;5069628;28;8847;-74
2020/12/03 07:05:41;;;;;;;;;7.00;6.25;;;;;27.76;46.53;99144.75;5068655;28;9501;-69
2020/12/03 07:08:41;;;;;;;;;7.00;5.50;;;;;27.80;43.75;99148.28;5069908;28;8959;-69
2020/12/03 07:11:33;;;;;;;;;7.50;4.25;;;;;27.85;45.57;99135.19;5067148;28;8865;-69
2020/12/03 07:14:33;;;;;;;;;7.75;4.75;;;;;27.87;44.74;99130.16;5070483;28;8855;-70
2020/12/03 07:17:21;;;;;;;;;3.00;3.00;;;;;27.94;46.26;99132.94;5070275;28;8840;-70
2020/12/03 07:20:21;;;;;;;;;6.00;4.50;;;;;27.94;44.81;99122.09;5069610;28;9636;-69
2020/12/03 07:22:57;;;;;;;;;5.75;4.00;;;;;27.90;45.80;99112.38;5071059;28;8840;-68
2020/12/03 07:25:27;;;;;;;;;3.75;3.75;;;;;27.98;43.79;99111.28;5070320;28;8929;-71
2020/12/03 07:28:23;;;;;;;;;4.00;3.75;;;;;28.19;45.53;99124.25;5070728;28;8836;-70
2020/12/03 07:31:00;;;;;;;;;8.00;6.25;;;;;28.28;46.01;99118.53;5071459;28;9620;-69
2020/12/03 07:33:40;;;;;;;;;4.75;4.75;;;;;28.28;45.74;99113.13;5072517;28;8840;-70
2020/12/03 07:36:35;;;;;;;;;8.25;6.75;;;;;28.21;45.69;99108.38;5073350;28;8893;-71
2020/12/03 07:39:18;;;;;;;;;4.75;3.00;;;;;28.17;45.26;99118.41;5083610;28;9573;-70
2020/12/03 07:41:55;;;;;;;;;4.75;4.75;;;;;28.14;44.52;99114.53;5081123;28;8856;-70
2020/12/03 07:44:50;;;;;;;;;4.00;4.00;;;;;28.14;45.53;99097.47;5081476;28;8831;-71
2020/12/03 07:47:36;;;;;;;;;6.50;5.00;;;;;28.19;45.46;99097.13;5082389;28;8848;-70
2020/12/03 07:50:07;;;;;;;;;5.75;4.25;;;;;28.18;43.62;99101.78;5079628;28;8820;-70
2020/12/03 07:52:37;;;;;;;;;5.00;5.00;;;;;28.23;42.04;99092.53;5097205;28;8963;-69
2020/12/03 07:55:29;;;;;;;;;3.25;3.25;;;;;28.36;45.49;99101.16;5080274;28;8830;-71
2020/12/03 07:58:00;;;;;;;;;5.50;3.25;;;;;28.34;44.88;99106.97;5081177;28;8828;-69
2020/12/03 08:00:51;;;;;;;;;4.00;4.00;;;;;28.29;44.91;99101.88;5069591;28;8825;-69
2020/12/03 08:03:51;;;;;;;;;4.75;4.75;;;;;28.20;45.00;99104.09;5067412;28;8974;-70
2020/12/03 08:06:37;;;;;;;;;3.25;3.25;;;;;28.11;45.36;99093.56;5078319;28;9023;-70
2020/12/03 08:09:23;;;;;;;;;4.75;4.75;;;;;28.04;45.11;99093.53;5094633;28;9331;-70
2020/12/03 08:12:16;;;;;;;;;4.25;4.25;;;;;28.01;44.34;99096.97;5079978;28;8820;-71
2020/12/03 08:14:50;;;;;;;;;15.00;13.75;;;;;28.04;44.75;99096.22;5081503;28;8844;-69
2020/12/03 08:17:36;;;;;;;;;7.25;6.00;;;;;28.12;45.70;99107.91;5080887;28;8881;-69
2020/12/03 08:20:12;;;;;;;;;3.75;3.75;;;;;28.11;45.33;99092.78;5081470;28;8808;-70
2020/12/03 08:22:43;;;;;;;;;5.00;5.00;;;;;28.04;45.33;99095.44;5081092;28;8861;-69
2020/12/03 08:25:26;;;;;;;;;9.00;6.50;;;;;27.99;44.86;99091.16;5079752;28;8948;-69
2020/12/03 08:28:01;;;;;;;;;7.25;5.75;;;;;28.00;45.05;99092.72;5068529;28;8848;-69
2020/12/03 08:30:40;;;;;;;;;9.50;5.00;;;;;27.96;44.87;99100.03;5080891;28;8818;-69
2020/12/03 08:33:17;;;;;;;;;6.25;5.75;;;;;27.92;44.87;99093.78;5077796;28;8945;-71
2020/12/03 08:35:52;;;;;;;;;5.00;5.00;;;;;27.89;44.87;99091.84;5081009;28;8848;-69
2020/12/03 08:38:24;;;;;;;;;6.00;6.00;;;;;27.85;44.79;99080.16;5069432;28;8937;-69
2020/12/03 08:40:54;;;;;;;;;6.75;6.75;;;;;27.86;45.12;99082.50;5070706;28;8925;-69
2020/12/03 08:43:23;;;;;;;;;2.00;2.00;;;;;27.97;45.16;99090.75;5077674;28;8828;-70
2020/12/03 08:46:11;;;;;;;;;7.25;7.25;;;;;28.02;44.94;99093.09;5070046;28;8832;-69
2020/12/03 08:48:41;;;;;;;;;6.75;6.75;;;;;28.01;44.57;99096.97;5067820;28;8899;-70
2020/12/03 08:51:12;;;;;;;;;5.00;5.00;;;;;28.02;43.85;99084.19;5067381;28;8874;-69
2020/12/03 08:53:46;;;;;;;;;5.25;5.25;;;;;28.06;44.35;99083.06;5078689;28;8844;-70
2020/12/03 08:56:35;;;;;;;;;6.00;5.50;;;;;28.13;44.51;99085.06;5078309;28;8857;-70
2020/12/03 08:59:27;;;;;;;;;6.00;6.00;;;;;28.16;44.69;99095.16;5067133;28;9580;-70
2020/12/03 09:02:16;;;;;;;;;5.75;4.75;;;;;28.13;44.58;99093.19;5067221;28;8938;-70
2020/12/03 09:04:55;;;;;;;;;5.75;5.75;;;;;28.04;44.45;99098.16;5065436;28;8852;-70
2020/12/03 09:07:30;;;;;;;;;6.50;6.50;;;;;27.99;44.55;99090.38;5066827;28;8832;-70
2020/12/03 09:10:02;;;;;;;;;7.00;6.50;;;;;27.96;44.68;99093.81;5068921;28;8832;-69
2020/12/03 09:12:35;;;;;;;;;4.00;4.00;;;;;27.92;44.71;99086.44;5062691;28;8853;-71
2020/12/03 09:15:08;;;;;;;;;4.75;4.75;;;;;27.87;44.75;99086.78;5066997;28;8949;-70
2020/12/03 09:17:47;;;;;;;;;5.00;4.75;;;;;27.83;44.37;99077.06;5097987;28;8840;-69
2020/12/03 09:20:17;;;;;;;;;6.75;5.25;;;;;27.87;45.08;99084.06;5067959;28;8879;-70
2020/12/03 09:22:46;;;;;;;;;5.00;5.00;;;;;27.84;44.36;99084.81;5066879;28;8871;-69
2020/12/03 09:25:15;;;;;;;;;4.00;4.00;;;;;27.83;44.63;99085.19;5063515;28;8828;-69
2020/12/03 09:27:47;;;;;;;;;8.00;7.00;;;;;27.88;44.57;99085.63;5066284;28;8848;-69
2020/12/03 09:30:27;;;;;;;;;6.25;6.00;;;;;27.90;44.77;99087.97;5065251;28;8856;-71
2020/12/03 09:32:59;;;;;;;;;6.25;6.25;;;;;27.89;44.70;99086.41;5066885;28;8902;-69
2020/12/03 09:35:30;;;;;;;;;7.50;5.50;;;;;27.88;44.95;99101.13;5066032;28;8913;-70
2020/12/03 09:38:02;;;;;;;;;19.50;15.25;;;;;27.80;44.73;99094.84;5068720;28;8901;-69
2020/12/03 09:40:35;;;;;;;;;5.25;5.25;;;;;27.73;44.57;99097.50;5067213;28;8852;-70
2020/12/03 09:43:05;;;;;;;;;8.75;6.75;;;;;27.61;44.69;99089.63;5066840;28;8910;-69
2020/12/03 09:45:38;;;;;;;;;6.75;6.50;;;;;27.58;45.00;99098.47;5066461;28;8855;-70
2020/12/03 09:48:17;;;;;;;;;6.75;5.50;;;;;27.51;44.81;99103.81;5067661;28;8874;-69
2020/12/03 09:50:49;;;;;;;;;5.25;5.25;;;;;27.39;45.17;99096.72;5065775;28;8852;-70
2020/12/03 09:53:20;;;;;;;;;5.50;5.50;;;;;27.40;45.21;99105.63;5082822;28;8871;-69
2020/12/03 09:55:49;;;;;;;;;7.00;5.75;;;;;27.29;45.22;99103.59;5066235;28;8844;-71
2020/12/03 09:58:20;;;;;;;;;11.75;5.75;;;;;27.32;45.41;99117.53;5067576;28;9560;-71
2020/12/03 10:00:53;;;;;;;;;9.50;8.50;;;;;27.28;45.38;99114.78;5080208;28;8877;-68
2020/12/03 10:04:00;;;;;;;;;6.25;6.00;;;;;27.22;45.36;99110.84;5079200;28;8824;-68
2020/12/03 10:07:09;;;;;;;;;8.25;8.00;;;;;27.16;45.61;99113.09;5080475;28;9564;-68
2020/12/03 10:10:03;;;;;;;;;8.50;8.50;;;;;27.10;45.75;99121.91;5069341;28;8860;-69
2020/12/03 10:12:54;;;;;;;;;8.50;8.50;;;;;27.04;45.83;99124.16;5078895;28;8863;-70
2020/12/03 10:15:54;;;;;;;;;11.75;10.00;;;;;26.97;45.76;99124.06;5082170;28;8829;-69
2020/12/03 10:18:25;;;;;;;;;9.50;8.25;;;;;26.91;45.94;99125.50;5082276;28;8828;-69
2020/12/03 10:20:53;;;;;;;;;9.75;7.25;;;;;26.85;45.63;99129.66;5083705;28;8921;-68
2020/12/03 10:23:39;;;;;;;;;3.25;3.25;;;;;26.84;45.91;99141.66;5084701;28;8838;-68
2020/12/03 10:26:35;;;;;;;;;15.75;11.25;;;;;26.80;45.85;99141.59;5083251;28;8852;-70
2020/12/03 10:29:35;;;;;;;;;9.50;8.25;;;;;26.82;45.85;99152.06;5075253;28;8836;-69
2020/12/03 10:32:15;;;;;;;;;9.75;9.75;;;;;26.80;46.09;99149.72;5073682;28;8836;-69
2020/12/03 10:34:46;;;;;;;;;12.00;9.00;;;;;26.82;46.13;99157.47;5073764;28;8824;-69
2020/12/03 10:37:36;;;;;;;;;14.75;12.25;;;;;26.81;46.05;99153.19;5086611;28;8830;-69
2020/12/03 10:40:15;;;;;;;;;12.75;12.75;;;;;26.79;46.24;99158.97;5073672;28;9549;-69
2020/12/03 10:43:20;;;;;;;;;14.75;10.75;;;;;26.77;46.10;99160.47;5073452;28;8871;-68
2020/12/03 10:45:52;;;;;;;;;12.50;11.25;;;;;26.73;46.03;99165.84;5075959;28;8834;-68
2020/12/03 10:48:43;;;;;;;;;12.50;10.75;;;;;26.73;46.04;99173.97;5072705;28;8848;-69
2020/12/03 10:51:13;;;;;;;;;14.50;13.00;;;;;26.67;46.11;99163.81;5071934;28;8925;-70
2020/12/03 10:53:47;;;;;;;;;11.00;11.00;;;;;26.63;46.09;99159.13;5072521;28;8828;-69
2020/12/03 10:56:16;;;;;;;;;11.50;10.25;;;;;26.71;46.43;99168.13;5072217;28;8834;-68
2020/12/03 10:59:30;;;;;;;;;11.00;11.00;;;;;26.72;46.16;99175.09;5070402;28;8832;-69
2020/12/03 11:02:00;;;;;;;;;10.75;10.75;;;;;26.69;46.50;99172.34;5073988;28;8941;-69
2020/12/03 11:04:31;;;;;;;;;10.75;10.75;;;;;26.62;46.22;99165.69;5082229;28;8890;-69
2020/12/03 11:07:08;;;;;;;;;9.00;9.00;;;;;26.67;46.35;99175.41;5075965;28;8847;-69
2020/12/03 11:09:38;;;;;;;;;11.50;11.50;;;;;26.56;46.39;99164.44;5076628;28;8914;-70
2020/12/03 11:12:10;;;;;;;;;13.25;10.50;;;;;26.61;46.37;99171.47;5079507;28;8842;-69
2020/12/03 11:14:41;;;;;;;;;12.25;12.00;;;;;26.56;46.71;99174.47;5078350;28;8845;-70
2020/12/03 11:17:47;;;;;;;;;10.50;9.00;;;;;26.56;46.42;99180.66;5073846;28;8898;-70
2020/12/03 11:20:38;;;;;;;;;11.50;9.50;;;;;26.56;46.60;99182.59;5085657;28;8944;-69
2020/12/03 11:23:22;;;;;;;;;13.00;11.00;;;;;26.54;46.67;99185.66;5071352;28;9713;-69
2020/12/03 11:25:54;;;;;;;;;14.50;11.50;;;;;26.52;46.78;99187.94;5070043;28;8848;-69
2020/12/03 11:28:33;;;;;;;;;17.50;12.25;;;;;26.50;47.17;99190.22;5084227;28;8852;-68
2020/12/03 11:31:06;;;;;;;;;12.25;12.25;;;;;26.47;47.14;99192.88;5070202;28;8832;-69
2020/12/03 11:33:37;;;;;;;;;14.50;9.50;;;;;26.42;47.02;99193.94;5078707;28;8828;-68
2020/12/03 11:36:15;;;;;;;;;15.25;11.75;;;;;26.38;46.98;99200.44;5075311;28;8824;-69
2020/12/03 11:38:53;;;;;;;;;12.00;11.50;;;;;26.36;47.04;99205.44;5079291;28;8823;-69
2020/12/03 11:41:33;;;;;;;;;13.25;12.50;;;;;26.33;47.01;99215.03;5083189;28;8825;-68
2020/12/03 11:49:03;;;;;;;;;16.50;14.75;;;;;26.22;47.57;99222.16;5087995;28;8829;-70
2020/12/03 11:51:37;;;;;;;;;15.75;13.75;;;;;26.20;47.35;99222.50;5090608;28;8918;-69
2020/12/03 11:54:08;;;;;;;;;16.00;14.75;;;;;26.18;47.70;99230.19;5073708;28;8905;-69
2020/12/03 11:56:38;;;;;;;;;22.75;19.25;;;;;26.15;47.38;99235.53;5071702;28;8882;-69
2020/12/03 11:59:19;;;;;;;;;16.00;16.00;;;;;26.13;47.37;99244.00;5072707;28;8881;-68
2020/12/03 12:02:07;;;;;;;;;16.75;14.75;;;;;26.11;47.37;99232.78;5076070;28;8996;-69
2020/12/03 12:12:21;;;;;;;;;11.75;11.75;;;;;25.99;47.38;99247.25;5073451;28;8921;-68
2020/12/03 12:14:50;;;;;;;;;19.00;18.00;;;;;26.02;47.65;99256.53;5092665;28;8832;-67
2020/12/03 12:17:19;;;;;;;;;19.75;17.50;;;;;26.03;47.79;99255.41;5079851;28;8837;-69
2020/12/03 12:19:51;;;;;;;;;24.33;21.00;;;;;26.01;47.87;99263.09;5077439;28;8824;-69
2020/12/03 12:22:19;;;;;;;;;23.67;20.67;;;;;26.00;47.83;99264.25;5077674;28;8918;-69
2020/12/03 12:24:48;;;;;;;;;18.33;18.33;;;;;25.98;47.89;99264.63;5088762;28;9093;-70
2020/12/03 12:27:17;;;;;;;;;21.00;20.67;;;;;25.94;47.81;99274.56;5074202;28;9057;-69
2020/12/03 12:29:46;;;;;;;;;21.67;21.67;;;;;25.92;47.71;99282.25;5064081;28;9180;-69
2020/12/03 12:32:14;;;;;;;;;24.67;22.33;;;;;25.89;47.83;99285.66;5067614;28;9034;-69
2020/12/03 12:34:46;;;;;;;;;23.67;21.33;;;;;25.85;48.12;99278.63;5068480;28;9159;-69
2020/12/03 12:37:14;;;;;;;;;24.00;24.00;;;;;25.87;47.91;99289.88;5068970;28;9163;-69